createdAt,value
2018-07-21T00:01:03.077Z,19.80
2018-07-21T00:03:33.461Z,19.93
2018-07-21T00:06:03.840Z,19.87
2018-07-21T00:08:34.774Z,20.53
2018-07-21T00:11:05.162Z,18.97
2018-07-21T00:13:35.467Z,20.80
2018-07-21T00:16:05.885Z,19.40
2018-07-21T00:18:36.338Z,20.57
2018-07-21T00:21:06.451Z,21.37
2018-07-21T00:23:36.728Z,19.10
2018-07-21T00:26:07.509Z,20.40
2018-07-21T00:28:37.889Z,20.10
2018-07-21T00:31:08.260Z,19.90
2018-07-21T00:33:38.568Z,18.93
2018-07-21T00:36:09.112Z,21.37
2018-07-21T00:38:39.486Z,20.37
2018-07-21T00:41:09.965Z,19.80
2018-07-21T00:43:40.260Z,19.30
2018-07-21T00:46:10.706Z,20.73
2018-07-21T00:48:41.053Z,19.53
2018-07-21T00:51:11.465Z,20.23
2018-07-21T00:53:41.873Z,19.87
2018-07-21T00:56:12.175Z,20.73
2018-07-21T00:58:42.577Z,20.40
2018-07-21T01:01:12.959Z,19.90
2018-07-21T01:03:43.283Z,19.53
2018-07-21T01:06:13.735Z,20.10
2018-07-21T01:08:44.120Z,18.80
2018-07-21T01:11:15.318Z,20.20
2018-07-21T01:13:45.626Z,20.57
2018-07-21T01:16:16.031Z,19.80
2018-07-21T01:18:46.295Z,20.20
2018-07-21T01:21:16.597Z,18.20
2018-07-21T01:23:46.946Z,20.80
2018-07-21T01:26:17.270Z,19.33
2018-07-21T01:28:47.584Z,20.43
2018-07-21T01:31:17.879Z,20.73
2018-07-21T01:33:48.228Z,21.07
2018-07-21T01:36:18.565Z,21.20
2018-07-21T01:38:48.922Z,19.57
2018-07-21T01:41:19.212Z,20.00
2018-07-21T01:43:49.496Z,20.37
2018-07-21T01:46:19.764Z,21.53
2018-07-21T01:48:50.105Z,21.70
2018-07-21T01:51:20.404Z,21.20
2018-07-21T01:53:50.729Z,21.60
2018-07-21T01:56:21.006Z,20.67
2018-07-21T01:58:51.361Z,20.93
2018-07-21T02:01:21.632Z,19.93
2018-07-21T02:03:52.033Z,21.00
2018-07-21T02:06:22.299Z,21.97
2018-07-21T02:08:52.657Z,22.67
2018-07-21T02:11:24.482Z,20.90
2018-07-21T02:13:54.772Z,21.20
2018-07-21T02:16:25.092Z,21.20
2018-07-21T02:18:55.332Z,20.03
2018-07-21T02:21:25.669Z,22.13
2018-07-21T02:23:56.001Z,20.47
2018-07-21T02:26:26.425Z,20.03
2018-07-21T02:28:56.697Z,21.60
2018-07-21T02:31:27.249Z,19.83
2018-07-21T02:33:57.499Z,21.37
2018-07-21T02:36:28.065Z,21.00
2018-07-21T02:38:58.361Z,21.60
2018-07-21T02:41:28.370Z,21.70
2018-07-21T02:43:58.556Z,20.10
2018-07-21T02:46:28.852Z,18.97
2018-07-21T02:48:59.101Z,20.43
2018-07-21T02:51:29.413Z,21.77
2018-07-21T02:53:59.684Z,20.87
2018-07-21T02:56:30.003Z,21.00
2018-07-21T02:59:00.317Z,20.93
2018-07-21T03:01:30.637Z,20.60
2018-07-21T03:04:00.936Z,20.63
2018-07-21T03:06:31.234Z,21.00
2018-07-21T03:09:01.541Z,21.10
2018-07-21T03:11:31.851Z,20.87
2018-07-21T03:14:02.174Z,19.80
2018-07-21T03:16:32.472Z,20.30
2018-07-21T03:19:02.789Z,20.97
2018-07-21T03:21:33.241Z,20.53
2018-07-21T03:24:03.751Z,20.70
2018-07-21T03:26:34.084Z,21.00
2018-07-21T03:29:04.404Z,19.50
2018-07-21T03:31:34.771Z,20.60
2018-07-21T03:34:04.847Z,19.90
2018-07-21T03:36:35.027Z,20.37
2018-07-21T03:39:08.606Z,20.47
2018-07-21T03:41:38.976Z,21.50
2018-07-21T03:44:09.260Z,21.90
2018-07-21T03:46:39.564Z,23.47
2018-07-21T03:49:09.912Z,22.93
2018-07-21T03:51:41.092Z,19.23
2018-07-21T03:54:11.377Z,20.30
2018-07-21T03:56:41.633Z,19.80
2018-07-21T03:59:11.904Z,20.37
2018-07-21T04:01:42.205Z,21.00
2018-07-21T04:04:12.464Z,20.97
2018-07-21T04:06:42.754Z,22.63
2018-07-21T04:09:13.013Z,20.30
2018-07-21T04:11:43.318Z,21.80
2018-07-21T04:14:13.589Z,21.77
2018-07-21T04:16:43.924Z,20.47
2018-07-21T04:19:14.199Z,20.67
2018-07-21T04:21:44.488Z,20.70
2018-07-21T04:24:14.747Z,21.80
2018-07-21T04:26:45.041Z,20.63
2018-07-21T04:29:15.327Z,21.03
2018-07-21T04:31:45.650Z,21.33
2018-07-21T04:34:15.894Z,21.07
2018-07-21T04:36:46.200Z,21.63
2018-07-21T04:39:16.493Z,20.77
2018-07-21T04:41:46.794Z,20.40
2018-07-21T04:44:17.112Z,22.70
2018-07-21T04:46:47.393Z,20.27
2018-07-21T04:49:18.225Z,20.33
2018-07-21T04:51:48.572Z,20.67
2018-07-21T04:54:18.841Z,19.23
2018-07-21T04:56:49.181Z,19.50
2018-07-21T04:59:19.451Z,22.23
2018-07-21T05:01:49.896Z,20.50
2018-07-21T05:04:19.848Z,20.43
2018-07-21T05:06:50.023Z,20.67
2018-07-21T05:09:20.280Z,21.07
2018-07-21T05:11:50.585Z,21.13
2018-07-21T05:14:20.860Z,19.60
2018-07-21T05:16:51.129Z,19.80
2018-07-21T05:19:21.409Z,20.27
2018-07-21T05:21:51.734Z,23.17
2018-07-21T05:24:22.017Z,19.97
2018-07-21T05:26:52.326Z,19.80
2018-07-21T05:29:22.646Z,19.37
2018-07-21T05:31:53.012Z,20.10
2018-07-21T05:34:23.328Z,20.13
2018-07-21T05:36:56.490Z,18.97
2018-07-21T05:39:26.926Z,19.30
2018-07-21T05:41:57.504Z,20.60
2018-07-21T05:44:27.879Z,18.87
2018-07-21T05:46:58.177Z,20.07
2018-07-21T05:49:28.499Z,21.43
2018-07-21T05:51:58.842Z,19.40
2018-07-21T05:54:30.821Z,21.10
2018-07-21T05:57:01.137Z,19.00
2018-07-21T05:59:32.014Z,20.37
2018-07-21T06:02:04.065Z,18.77
2018-07-21T06:04:34.344Z,18.50
2018-07-21T06:07:04.705Z,19.90
2018-07-21T06:09:34.958Z,20.63
2018-07-21T06:12:05.331Z,20.57
2018-07-21T06:14:35.614Z,20.07
2018-07-21T06:17:06.988Z,19.73
2018-07-21T06:19:37.225Z,19.43
2018-07-21T06:22:07.623Z,21.07
2018-07-21T06:24:37.885Z,20.40
2018-07-21T06:27:08.188Z,20.30
2018-07-21T06:29:38.496Z,20.10
2018-07-21T06:32:09.207Z,18.97
2018-07-21T06:34:39.497Z,20.77
2018-07-21T06:37:09.765Z,18.50
2018-07-21T06:39:40.229Z,20.03
2018-07-21T06:42:10.536Z,18.97
2018-07-21T06:44:40.773Z,19.03
2018-07-21T06:47:11.423Z,19.90
2018-07-21T06:49:41.802Z,19.43
2018-07-21T06:52:12.046Z,18.40
2018-07-21T06:54:42.013Z,17.80
2018-07-21T06:57:12.150Z,18.60
2018-07-21T06:59:42.440Z,18.53
2018-07-21T07:02:13.070Z,18.77
2018-07-21T07:04:43.419Z,19.33
2018-07-21T07:07:13.665Z,19.93
2018-07-21T07:09:43.923Z,18.70
2018-07-21T07:12:14.248Z,17.17
2018-07-21T07:14:45.012Z,19.13
2018-07-21T07:17:15.323Z,18.83
2018-07-21T07:19:45.597Z,18.07
2018-07-21T07:22:17.286Z,17.40
2018-07-21T07:24:47.613Z,15.67
2018-07-21T07:27:17.898Z,17.43
2018-07-21T07:29:48.291Z,18.17
2018-07-21T07:32:18.585Z,17.27
2018-07-21T07:34:48.880Z,17.60
2018-07-21T07:37:19.127Z,33.23
2018-07-21T07:39:49.441Z,29.07
2018-07-21T07:42:19.712Z,21.63
2018-07-21T07:44:49.984Z,17.00
2018-07-21T07:47:20.263Z,21.03
2018-07-21T07:49:50.528Z,20.80
2018-07-21T07:52:20.827Z,21.07
2018-07-21T07:54:51.181Z,16.63
2018-07-21T07:57:21.456Z,16.90
2018-07-21T07:59:51.736Z,17.83
2018-07-21T08:02:22.024Z,16.83
2018-07-21T08:04:52.294Z,17.57
2018-07-21T08:07:23.173Z,17.73
2018-07-21T08:09:53.517Z,17.50
2018-07-21T08:12:24.112Z,18.30
2018-07-21T08:14:54.356Z,16.43
2018-07-21T08:17:24.728Z,17.87
2018-07-21T08:19:55.081Z,17.93
2018-07-21T08:22:25.489Z,16.63
2018-07-21T08:24:55.918Z,17.60
2018-07-21T08:27:26.300Z,17.20
2018-07-21T08:29:56.694Z,16.87
2018-07-21T08:32:26.970Z,15.67
2018-07-21T08:34:57.335Z,14.77
2018-07-21T08:37:27.719Z,14.47
2018-07-21T08:39:58.043Z,14.37
2018-07-21T08:42:28.377Z,14.57
2018-07-21T08:44:58.802Z,13.50
2018-07-21T08:47:29.080Z,15.03
2018-07-21T08:49:59.380Z,15.30
2018-07-21T08:52:29.703Z,14.90
2018-07-21T08:55:00.025Z,12.57
2018-07-21T08:57:30.454Z,12.87
2018-07-21T09:00:00.787Z,13.90
2018-07-21T09:02:31.327Z,13.63
2018-07-21T09:05:01.632Z,13.63
2018-07-21T09:07:31.953Z,13.30
2018-07-21T09:10:02.344Z,14.23
2018-07-21T09:12:32.644Z,13.10
2018-07-21T09:15:02.940Z,13.23
2018-07-21T09:17:33.246Z,13.67
2018-07-21T09:20:03.570Z,14.40
2018-07-21T09:22:33.917Z,13.00
2018-07-21T09:25:04.401Z,13.23
2018-07-21T09:27:34.768Z,12.70
2018-07-21T09:30:05.249Z,10.60
2018-07-21T09:32:35.590Z,10.07
2018-07-21T09:35:05.922Z,11.30
2018-07-21T09:37:36.309Z,11.80
2018-07-21T09:40:06.720Z,11.33
2018-07-21T09:42:37.056Z,10.83
2018-07-21T09:45:07.519Z,11.30
2018-07-21T09:47:37.780Z,11.53
2018-07-21T09:50:09.434Z,12.37
2018-07-21T09:52:40.142Z,11.60
2018-07-21T09:55:10.517Z,11.73
2018-07-21T09:57:41.036Z,11.00
2018-07-21T10:00:12.508Z,12.00
2018-07-21T10:02:42.805Z,12.43
2018-07-21T10:05:13.148Z,13.23
2018-07-21T10:07:43.435Z,12.27
2018-07-21T10:10:13.803Z,12.90
2018-07-21T10:12:44.125Z,12.67
2018-07-21T10:15:14.487Z,14.30
2018-07-21T10:17:44.822Z,13.30
2018-07-21T10:20:15.937Z,13.57
2018-07-21T10:22:46.255Z,14.17
2018-07-21T10:25:22.208Z,13.43
2018-07-21T10:27:57.431Z,12.50
2018-07-21T10:30:27.770Z,12.40
2018-07-21T10:32:58.064Z,14.43
2018-07-21T10:35:28.392Z,12.10
2018-07-21T10:37:58.964Z,12.60
2018-07-21T10:40:29.255Z,13.07
2018-07-21T10:42:59.611Z,12.10
2018-07-21T10:45:29.920Z,13.07
2018-07-21T10:48:00.263Z,12.53
2018-07-21T10:50:30.656Z,12.50
2018-07-21T10:53:00.669Z,13.23
2018-07-21T10:55:30.962Z,13.00
2018-07-21T10:58:01.342Z,12.80
2018-07-21T11:00:31.701Z,11.17
2018-07-21T11:03:02.131Z,11.03
2018-07-21T11:05:32.490Z,12.60
2018-07-21T11:08:02.883Z,11.60
2018-07-21T11:10:33.120Z,13.00
2018-07-21T11:13:03.460Z,13.60
2018-07-21T11:15:33.848Z,12.70
2018-07-21T11:18:04.128Z,12.30
2018-07-21T11:20:34.457Z,12.37
2018-07-21T11:23:04.862Z,12.40
2018-07-21T11:25:35.158Z,13.00
2018-07-21T11:28:05.668Z,13.13
2018-07-21T11:30:35.968Z,12.30
2018-07-21T11:33:06.356Z,11.57
2018-07-21T11:35:36.865Z,11.40
2018-07-21T11:38:07.171Z,12.60
2018-07-21T11:40:37.560Z,11.50
2018-07-21T11:43:08.142Z,11.40
2018-07-21T11:45:38.524Z,10.00
2018-07-21T11:48:08.846Z,10.70
2018-07-21T11:50:39.216Z,10.90
2018-07-21T11:53:09.595Z,11.83
2018-07-21T11:55:39.938Z,11.37
2018-07-21T11:58:10.323Z,11.40
2018-07-21T12:00:41.273Z,11.07
2018-07-21T12:03:11.636Z,11.47
2018-07-21T12:05:42.016Z,13.17
2018-07-21T12:08:12.433Z,13.33
2018-07-21T12:10:42.821Z,12.30
2018-07-21T12:13:13.235Z,12.23
2018-07-21T12:15:43.649Z,12.50
2018-07-21T12:18:14.007Z,11.40
2018-07-21T12:20:44.320Z,11.03
2018-07-21T12:23:14.637Z,11.70
2018-07-21T12:25:44.981Z,11.60
2018-07-21T12:28:15.324Z,11.83
2018-07-21T12:30:45.698Z,11.53
2018-07-21T12:33:16.709Z,11.40
2018-07-21T12:35:46.741Z,11.27
2018-07-21T12:38:16.963Z,10.83
2018-07-21T12:40:47.311Z,11.03
2018-07-21T12:43:17.642Z,10.57
2018-07-21T12:45:47.921Z,11.03
2018-07-21T12:48:18.213Z,11.10
2018-07-21T12:50:48.615Z,10.93
2018-07-21T12:53:18.940Z,10.70
2018-07-21T12:55:49.225Z,11.13
2018-07-21T12:58:19.545Z,10.97
2018-07-21T13:00:49.865Z,9.90
2018-07-21T13:03:19.969Z,11.43
2018-07-21T13:05:50.247Z,10.60
2018-07-21T13:08:20.655Z,10.40
2018-07-21T13:10:51.003Z,9.97
2018-07-21T13:13:21.417Z,10.80
2018-07-21T13:15:51.837Z,10.90
2018-07-21T13:18:22.177Z,10.30
2018-07-21T13:20:52.623Z,10.70
2018-07-21T13:23:22.994Z,10.83
2018-07-21T13:25:53.441Z,10.03
2018-07-21T13:28:23.843Z,10.70
2018-07-21T13:30:54.266Z,9.23
2018-07-21T13:33:24.312Z,10.23
2018-07-21T13:35:55.264Z,10.20
2018-07-21T13:38:25.719Z,10.60
2018-07-21T13:40:56.095Z,10.23
2018-07-21T13:43:26.521Z,10.33
2018-07-21T13:45:56.870Z,11.60
2018-07-21T13:48:27.270Z,11.80
2018-07-21T13:50:57.665Z,11.40
2018-07-21T13:53:28.055Z,10.83
2018-07-21T13:55:58.408Z,11.23
2018-07-21T13:58:28.748Z,10.90
2018-07-21T14:00:59.133Z,10.67
2018-07-21T14:03:29.480Z,9.97
2018-07-21T14:05:59.880Z,10.40
2018-07-21T14:08:30.212Z,11.03
2018-07-21T14:11:00.629Z,9.80
2018-07-21T14:13:31.492Z,11.13
2018-07-21T14:16:01.863Z,11.43
2018-07-21T14:18:32.344Z,10.73
2018-07-21T14:21:02.625Z,10.73
2018-07-21T14:23:33.039Z,11.50
2018-07-21T14:26:03.428Z,10.47
2018-07-21T14:28:34.593Z,10.47
2018-07-21T14:31:05.357Z,10.90
2018-07-21T14:33:35.647Z,11.13
2018-07-21T14:36:06.143Z,10.40
2018-07-21T14:38:36.253Z,10.07
2018-07-21T14:41:06.744Z,11.23
2018-07-21T14:43:37.121Z,11.57
2018-07-21T14:46:07.534Z,11.20
2018-07-21T14:48:38.735Z,11.20
2018-07-21T14:51:09.070Z,9.70
2018-07-21T14:53:39.360Z,10.87
2018-07-21T14:56:09.840Z,11.70
2018-07-21T14:58:40.281Z,12.03
2018-07-21T15:01:10.715Z,11.53
2018-07-21T15:03:40.981Z,11.97
2018-07-21T15:06:11.381Z,11.23
2018-07-21T15:08:41.706Z,10.60
2018-07-21T15:11:11.761Z,12.00
2018-07-21T15:13:42.006Z,10.93
2018-07-21T15:16:12.384Z,11.57
2018-07-21T15:18:42.757Z,11.00
2018-07-21T15:21:13.153Z,11.77
2018-07-21T15:23:44.213Z,10.83
2018-07-21T15:26:14.582Z,12.07
2018-07-21T15:28:44.956Z,11.97
2018-07-21T15:31:15.409Z,10.43
2018-07-21T15:33:45.695Z,11.50
2018-07-21T15:36:16.063Z,11.67
2018-07-21T15:38:47.189Z,11.00
2018-07-21T15:41:17.517Z,10.80
2018-07-21T15:43:47.941Z,10.13
2018-07-21T15:46:18.278Z,11.27
2018-07-21T15:48:48.625Z,11.03
2018-07-21T15:51:18.993Z,11.23
2018-07-21T15:53:49.304Z,11.10
2018-07-21T15:56:19.386Z,10.90
2018-07-21T15:58:49.714Z,10.80
2018-07-21T16:01:20.044Z,10.73
2018-07-21T16:03:50.497Z,11.17
2018-07-21T16:06:20.863Z,12.10
2018-07-21T16:08:51.222Z,15.47
2018-07-21T16:11:21.624Z,12.63
2018-07-21T16:13:52.000Z,13.67
2018-07-21T16:16:22.314Z,10.93
2018-07-21T16:18:52.652Z,10.67
2018-07-21T16:21:22.984Z,11.00
2018-07-21T16:23:53.293Z,10.50
2018-07-21T16:26:23.638Z,10.70
2018-07-21T16:28:53.961Z,10.97
2018-07-21T16:31:25.272Z,10.37
2018-07-21T16:33:55.698Z,10.70
2018-07-21T16:36:25.858Z,10.30
2018-07-21T16:38:56.064Z,10.77
2018-07-21T16:41:26.386Z,9.57
2018-07-21T16:43:56.803Z,9.87
2018-07-21T16:46:27.244Z,9.87
2018-07-21T16:48:57.624Z,9.50
2018-07-21T16:51:27.925Z,8.80
2018-07-21T16:53:58.232Z,9.43
2018-07-21T16:56:28.682Z,10.10
2018-07-21T16:58:59.080Z,10.30
2018-07-21T17:01:29.450Z,9.70
2018-07-21T17:03:59.800Z,10.60
2018-07-21T17:06:30.129Z,10.27
2018-07-21T17:09:00.485Z,9.20
2018-07-21T17:11:30.805Z,9.43
2018-07-21T17:14:01.113Z,10.00
2018-07-21T17:16:31.505Z,10.60
2018-07-21T17:19:01.860Z,9.70
2018-07-21T17:21:32.202Z,9.53
2018-07-21T17:24:02.581Z,10.30
2018-07-21T17:26:32.849Z,9.67
2018-07-21T17:29:03.247Z,9.90
2018-07-21T17:31:33.567Z,9.40
2018-07-21T17:34:03.870Z,9.77
2018-07-21T17:36:34.469Z,10.60
2018-07-21T17:39:07.415Z,9.80
2018-07-21T17:41:37.463Z,10.07
2018-07-21T17:44:07.705Z,10.70
2018-07-21T17:46:38.044Z,9.57
2018-07-21T17:49:08.441Z,10.03
2018-07-21T17:51:38.776Z,11.57
2018-07-21T17:54:09.077Z,12.47
2018-07-21T17:56:40.202Z,12.27
2018-07-21T17:59:10.546Z,12.67
2018-07-21T18:01:40.946Z,12.97
2018-07-21T18:04:10.963Z,15.63
2018-07-21T18:06:43.211Z,15.67
2018-07-21T18:09:15.593Z,15.43
2018-07-21T18:11:46.663Z,15.23
2018-07-21T18:14:17.820Z,14.43
2018-07-21T18:16:48.120Z,15.50
2018-07-21T18:19:18.480Z,21.93
2018-07-21T18:21:48.809Z,15.60
2018-07-21T18:24:19.186Z,40.47
2018-07-21T18:26:49.549Z,17.47
2018-07-21T18:29:19.845Z,17.40
2018-07-21T18:31:50.247Z,20.90
2018-07-21T18:34:21.461Z,26.10
2018-07-21T18:36:52.012Z,34.17
2018-07-21T18:39:22.389Z,31.37
2018-07-21T18:41:53.251Z,25.60
2018-07-21T18:44:24.967Z,88.00
2018-07-21T18:46:55.365Z,66.33
2018-07-21T18:49:25.813Z,56.50
2018-07-21T18:51:56.381Z,31.90
2018-07-21T18:54:26.985Z,23.10
2018-07-21T18:56:57.289Z,18.40
2018-07-21T18:59:27.621Z,18.13
2018-07-21T19:01:57.947Z,19.97
2018-07-21T19:04:28.346Z,20.10
2018-07-21T19:06:58.669Z,19.47
2018-07-21T19:09:29.062Z,16.00
2018-07-21T19:12:04.715Z,15.83
2018-07-21T19:14:35.011Z,14.43
2018-07-21T19:17:05.419Z,15.23
2018-07-21T19:19:40.962Z,13.17
2018-07-21T19:22:11.375Z,16.13
2018-07-21T19:24:41.774Z,14.50
2018-07-21T19:27:17.739Z,15.53
2018-07-21T19:29:48.154Z,13.87
2018-07-21T19:32:23.859Z,15.90
2018-07-21T19:34:54.130Z,15.73
2018-07-21T19:37:29.666Z,15.20
2018-07-21T19:40:00.069Z,15.83
2018-07-21T19:42:30.391Z,16.17
2018-07-21T19:45:00.712Z,28.57
2018-07-21T19:47:31.111Z,21.57
2018-07-21T19:50:01.446Z,15.97
2018-07-21T19:52:31.801Z,16.03
2018-07-21T19:55:02.348Z,15.40
2018-07-21T19:57:32.737Z,14.10
2018-07-21T20:00:03.088Z,13.87
2018-07-21T20:02:33.968Z,14.90
2018-07-21T20:05:04.348Z,13.80
2018-07-21T20:07:34.778Z,14.90
2018-07-21T20:10:05.743Z,15.80
2018-07-21T20:12:36.448Z,14.20
2018-07-21T20:15:06.759Z,15.43
2018-07-21T20:17:37.211Z,15.20
2018-07-21T20:20:09.240Z,13.10
2018-07-21T20:22:39.626Z,12.30
2018-07-21T20:25:10.033Z,14.77
2018-07-21T20:27:40.339Z,12.90
2018-07-21T20:30:10.638Z,14.63
2018-07-21T20:32:40.969Z,12.57
2018-07-21T20:35:11.289Z,13.73
2018-07-21T20:37:41.876Z,14.60
2018-07-21T20:40:12.256Z,13.10
2018-07-21T20:42:42.750Z,13.63
2018-07-21T20:45:13.140Z,12.87
2018-07-21T20:47:43.464Z,14.50
2018-07-21T20:50:14.281Z,10.37
2018-07-21T20:52:44.632Z,10.73
2018-07-21T20:55:15.096Z,8.93
2018-07-21T20:57:45.167Z,8.30
2018-07-21T21:00:15.437Z,8.70
2018-07-21T21:02:46.651Z,12.17
2018-07-21T21:05:17.347Z,7.50
2018-07-21T21:07:47.760Z,10.63
2018-07-21T21:10:18.062Z,9.70
2018-07-21T21:12:48.425Z,9.80
2018-07-21T21:15:18.723Z,10.83
2018-07-21T21:17:49.008Z,10.20
2018-07-21T21:20:19.364Z,10.17
2018-07-21T21:22:49.824Z,11.23
2018-07-21T21:25:20.375Z,12.53
2018-07-21T21:27:50.927Z,11.00
2018-07-21T21:30:21.231Z,10.13
2018-07-21T21:32:52.138Z,9.47
2018-07-21T21:35:22.427Z,8.77
2018-07-21T21:37:52.710Z,8.90
2018-07-21T21:40:23.021Z,10.47
2018-07-21T21:42:53.360Z,9.00
2018-07-21T21:45:23.710Z,8.20
2018-07-21T21:47:54.067Z,10.63
2018-07-21T21:50:24.349Z,10.87
2018-07-21T21:52:55.094Z,9.50
2018-07-21T21:55:25.478Z,8.40
2018-07-21T21:57:55.836Z,9.17
2018-07-21T22:00:27.605Z,12.17
2018-07-21T22:02:58.008Z,8.30
2018-07-21T22:05:28.344Z,10.63
2018-07-21T22:07:58.667Z,8.50
2018-07-21T22:10:28.995Z,8.70
2018-07-21T22:12:59.340Z,9.53
2018-07-21T22:15:29.666Z,11.33
2018-07-21T22:18:00.052Z,9.23
2018-07-21T22:20:30.450Z,8.70
2018-07-21T22:23:00.823Z,9.10
2018-07-21T22:25:31.533Z,9.17
2018-07-21T22:28:01.925Z,10.53
2018-07-21T22:30:32.236Z,8.17
2018-07-21T22:33:02.650Z,8.90
2018-07-21T22:35:33.193Z,8.53
2018-07-21T22:38:03.956Z,9.40
2018-07-21T22:40:34.348Z,10.60
2018-07-21T22:43:04.700Z,8.40
2018-07-21T22:45:35.046Z,8.00
2018-07-21T22:48:05.461Z,10.53
2018-07-21T22:50:35.815Z,9.67
2018-07-21T22:53:06.196Z,9.40
2018-07-21T22:55:36.524Z,8.47
2018-07-21T22:58:06.884Z,8.23
2018-07-21T23:00:37.217Z,9.20
2018-07-21T23:03:07.524Z,9.87
2018-07-21T23:05:37.863Z,9.80
2018-07-21T23:08:08.213Z,9.87
2018-07-21T23:10:38.556Z,9.17
2018-07-21T23:13:09.236Z,10.97
2018-07-21T23:15:39.529Z,9.63
2018-07-21T23:18:09.855Z,8.80
2018-07-21T23:20:40.153Z,8.97
2018-07-21T23:23:10.472Z,9.07
2018-07-21T23:25:41.181Z,11.70
2018-07-21T23:28:11.236Z,12.53
2018-07-21T23:30:42.353Z,9.17
2018-07-21T23:33:12.711Z,9.80
2018-07-21T23:35:43.014Z,11.10
2018-07-21T23:38:13.972Z,9.57
2018-07-21T23:40:44.321Z,10.13
2018-07-21T23:43:14.607Z,9.43
2018-07-21T23:45:45.030Z,9.30
2018-07-21T23:48:15.418Z,10.77
2018-07-21T23:50:45.776Z,9.77
2018-07-21T23:53:16.159Z,9.90
2018-07-21T23:55:46.485Z,9.83
2018-07-21T23:58:16.758Z,12.67
